sensor_id;sensor_type;location;lat;lon;timestamp;temperature;humidity
65146;DHT22;51730;56.950;24.126;2023-03-19T00:01:29;7.60;99.90
65146;DHT22;51730;56.950;24.126;2023-03-19T00:03:56;7.60;99.90
65146;DHT22;51730;56.950;24.126;2023-03-19T00:06:22;7.60;99.90
65146;DHT22;51730;56.950;24.126;2023-03-19T00:08:50;7.60;99.90
65146;DHT22;51730;56.950;24.126;2023-03-19T00:11:17;7.60;99.90
65146;DHT22;51730;56.950;24.126;2023-03-19T00:13:44;7.60;99.90
65146;DHT22;51730;56.950;24.126;2023-03-19T00:16:11;7.60;99.90
65146;DHT22;51730;56.950;24.126;2023-03-19T00:18:38;7.60;99.90
65146;DHT22;51730;56.950;24.126;2023-03-19T00:21:05;7.60;99.90
65146;DHT22;51730;56.950;24.126;2023-03-19T00:23:32;7.50;99.90
65146;DHT22;51730;56.950;24.126;2023-03-19T00:25:59;7.50;99.90
65146;DHT22;51730;56.950;24.126;2023-03-19T00:28:26;7.50;99.90
65146;DHT22;51730;56.950;24.126;2023-03-19T00:30:52;7.40;99.90
65146;DHT22;51730;56.950;24.126;2023-03-19T00:33:19;7.50;99.90
65146;DHT22;51730;56.950;24.126;2023-03-19T00:35:46;7.50;99.90
65146;DHT22;51730;56.950;24.126;2023-03-19T00:38:13;7.50;99.90
65146;DHT22;51730;56.950;24.126;2023-03-19T00:40:40;7.50;99.90
65146;DHT22;51730;56.950;24.126;2023-03-19T00:43:08;7.50;99.90
65146;DHT22;51730;56.950;24.126;2023-03-19T00:45:34;7.50;99.90
65146;DHT22;51730;56.950;24.126;2023-03-19T00:48:01;7.50;99.90
65146;DHT22;51730;56.950;24.126;2023-03-19T00:50:28;7.50;99.90
65146;DHT22;51730;56.950;24.126;2023-03-19T00:52:55;7.50;99.90
65146;DHT22;51730;56.950;24.126;2023-03-19T00:55:22;7.50;99.90
65146;DHT22;51730;56.950;24.126;2023-03-19T00:57:51;7.50;99.90
65146;DHT22;51730;56.950;24.126;2023-03-19T01:00:18;7.40;99.90
65146;DHT22;51730;56.950;24.126;2023-03-19T01:02:44;7.50;99.90
65146;DHT22;51730;56.950;24.126;2023-03-19T01:05:12;7.40;99.90
65146;DHT22;51730;56.950;24.126;2023-03-19T01:07:38;7.40;99.90
65146;DHT22;51730;56.950;24.126;2023-03-19T01:10:05;7.50;99.90
65146;DHT22;51730;56.950;24.126;2023-03-19T01:12:32;7.40;99.90
65146;DHT22;51730;56.950;24.126;2023-03-19T01:14:59;7.40;99.90
65146;DHT22;51730;56.950;24.126;2023-03-19T01:17:26;7.40;99.90
65146;DHT22;51730;56.950;24.126;2023-03-19T01:19:53;7.40;99.90
65146;DHT22;51730;56.950;24.126;2023-03-19T01:22:20;7.40;99.90
65146;DHT22;51730;56.950;24.126;2023-03-19T01:24:47;7.40;99.90
65146;DHT22;51730;56.950;24.126;2023-03-19T01:27:14;7.40;99.90
65146;DHT22;51730;56.950;24.126;2023-03-19T01:29:41;7.40;99.90
65146;DHT22;51730;56.950;24.126;2023-03-19T01:32:08;7.30;99.90
65146;DHT22;51730;56.950;24.126;2023-03-19T01:34:35;7.40;99.90
65146;DHT22;51730;56.950;24.126;2023-03-19T01:37:02;7.40;99.90
65146;DHT22;51730;56.950;24.126;2023-03-19T01:39:29;7.40;99.90
65146;DHT22;51730;56.950;24.126;2023-03-19T01:41:59;7.40;99.90
65146;DHT22;51730;56.950;24.126;2023-03-19T01:44:27;7.40;99.90
65146;DHT22;51730;56.950;24.126;2023-03-19T01:46:54;7.40;99.90
65146;DHT22;51730;56.950;24.126;2023-03-19T01:49:22;7.40;99.90
65146;DHT22;51730;56.950;24.126;2023-03-19T01:51:50;7.40;99.90
65146;DHT22;51730;56.950;24.126;2023-03-19T01:54:19;7.40;99.90
65146;DHT22;51730;56.950;24.126;2023-03-19T01:56:48;7.30;99.90
65146;DHT22;51730;56.950;24.126;2023-03-19T01:59:22;7.30;99.90
65146;DHT22;51730;56.950;24.126;2023-03-19T02:01:54;7.30;99.90
65146;DHT22;51730;56.950;24.126;2023-03-19T02:04:23;7.30;99.90
65146;DHT22;51730;56.950;24.126;2023-03-19T02:06:51;7.30;99.90
65146;DHT22;51730;56.950;24.126;2023-03-19T02:09:18;7.20;99.90
65146;DHT22;51730;56.950;24.126;2023-03-19T02:11:46;7.20;99.90
65146;DHT22;51730;56.950;24.126;2023-03-19T02:14:12;7.30;99.90
65146;DHT22;51730;56.950;24.126;2023-03-19T02:16:39;7.30;99.90
65146;DHT22;51730;56.950;24.126;2023-03-19T02:19:07;7.30;99.90
65146;DHT22;51730;56.950;24.126;2023-03-19T02:21:35;7.30;99.90
65146;DHT22;51730;56.950;24.126;2023-03-19T02:24:21;7.30;99.90
65146;DHT22;51730;56.950;24.126;2023-03-19T02:26:50;7.20;99.90
65146;DHT22;51730;56.950;24.126;2023-03-19T02:29:17;7.20;99.90
65146;DHT22;51730;56.950;24.126;2023-03-19T02:31:44;7.20;99.90
65146;DHT22;51730;56.950;24.126;2023-03-19T02:36:51;7.10;99.90
65146;DHT22;51730;56.950;24.126;2023-03-19T02:39:22;7.10;99.90
65146;DHT22;51730;56.950;24.126;2023-03-19T02:41:50;7.10;99.90
65146;DHT22;51730;56.950;24.126;2023-03-19T02:44:18;7.00;99.90
65146;DHT22;51730;56.950;24.126;2023-03-19T02:46:46;7.00;99.90
65146;DHT22;51730;56.950;24.126;2023-03-19T02:49:12;7.00;99.90
65146;DHT22;51730;56.950;24.126;2023-03-19T02:51:39;7.00;99.90
65146;DHT22;51730;56.950;24.126;2023-03-19T02:54:07;7.00;99.90
65146;DHT22;51730;56.950;24.126;2023-03-19T02:56:34;7.00;99.90
65146;DHT22;51730;56.950;24.126;2023-03-19T02:59:01;7.10;99.90
65146;DHT22;51730;56.950;24.126;2023-03-19T03:01:28;7.00;99.90
65146;DHT22;51730;56.950;24.126;2023-03-19T03:03:55;6.90;99.90
65146;DHT22;51730;56.950;24.126;2023-03-19T03:06:22;6.90;99.90
65146;DHT22;51730;56.950;24.126;2023-03-19T03:08:49;6.90;99.90
65146;DHT22;51730;56.950;24.126;2023-03-19T03:11:15;6.90;99.90
65146;DHT22;51730;56.950;24.126;2023-03-19T03:13:42;6.90;99.90
65146;DHT22;51730;56.950;24.126;2023-03-19T03:16:09;6.80;99.90
65146;DHT22;51730;56.950;24.126;2023-03-19T03:18:36;6.70;99.90
65146;DHT22;51730;56.950;24.126;2023-03-19T03:21:03;6.80;99.90
65146;DHT22;51730;56.950;24.126;2023-03-19T03:23:30;6.80;99.90
65146;DHT22;51730;56.950;24.126;2023-03-19T03:25:56;6.70;99.90
65146;DHT22;51730;56.950;24.126;2023-03-19T03:28:23;6.70;99.90
65146;DHT22;51730;56.950;24.126;2023-03-19T03:30:50;6.70;99.90
65146;DHT22;51730;56.950;24.126;2023-03-19T03:33:17;6.70;99.90
65146;DHT22;51730;56.950;24.126;2023-03-19T03:35:44;6.70;99.90
65146;DHT22;51730;56.950;24.126;2023-03-19T03:38:10;6.70;99.90
65146;DHT22;51730;56.950;24.126;2023-03-19T03:40:38;6.70;99.90
65146;DHT22;51730;56.950;24.126;2023-03-19T03:43:04;6.70;99.90
65146;DHT22;51730;56.950;24.126;2023-03-19T03:45:31;6.70;99.90
65146;DHT22;51730;56.950;24.126;2023-03-19T03:47:58;6.80;99.90
65146;DHT22;51730;56.950;24.126;2023-03-19T03:50:26;6.70;99.90
65146;DHT22;51730;56.950;24.126;2023-03-19T03:52:53;6.60;99.90
65146;DHT22;51730;56.950;24.126;2023-03-19T03:55:19;6.60;99.90
65146;DHT22;51730;56.950;24.126;2023-03-19T03:57:46;6.60;99.90
65146;DHT22;51730;56.950;24.126;2023-03-19T04:00:13;6.70;99.90
65146;DHT22;51730;56.950;24.126;2023-03-19T04:02:40;6.80;99.90
65146;DHT22;51730;56.950;24.126;2023-03-19T04:05:07;6.70;99.90
65146;DHT22;51730;56.950;24.126;2023-03-19T04:07:35;6.70;99.90
65146;DHT22;51730;56.950;24.126;2023-03-19T04:10:03;6.70;99.90
65146;DHT22;51730;56.950;24.126;2023-03-19T04:12:30;6.60;99.90
65146;DHT22;51730;56.950;24.126;2023-03-19T04:14:56;6.60;99.90
65146;DHT22;51730;56.950;24.126;2023-03-19T04:17:23;6.70;99.90
65146;DHT22;51730;56.950;24.126;2023-03-19T04:19:50;6.60;99.90
65146;DHT22;51730;56.950;24.126;2023-03-19T04:22:17;6.70;99.90
65146;DHT22;51730;56.950;24.126;2023-03-19T04:24:44;6.70;99.90
65146;DHT22;51730;56.950;24.126;2023-03-19T04:27:11;6.70;99.90
65146;DHT22;51730;56.950;24.126;2023-03-19T04:29:38;6.60;99.90
65146;DHT22;51730;56.950;24.126;2023-03-19T04:32:04;6.70;99.90
65146;DHT22;51730;56.950;24.126;2023-03-19T04:34:31;6.60;99.90
65146;DHT22;51730;56.950;24.126;2023-03-19T04:36:58;6.60;99.90
65146;DHT22;51730;56.950;24.126;2023-03-19T04:39:25;6.60;99.90
65146;DHT22;51730;56.950;24.126;2023-03-19T04:41:52;6.70;99.90
65146;DHT22;51730;56.950;24.126;2023-03-19T04:44:19;6.70;99.90
65146;DHT22;51730;56.950;24.126;2023-03-19T04:46:46;6.70;99.90
65146;DHT22;51730;56.950;24.126;2023-03-19T04:49:13;6.70;99.90
65146;DHT22;51730;56.950;24.126;2023-03-19T04:51:39;6.60;99.90
65146;DHT22;51730;56.950;24.126;2023-03-19T04:54:07;6.60;99.90
65146;DHT22;51730;56.950;24.126;2023-03-19T04:56:34;6.60;99.90
65146;DHT22;51730;56.950;24.126;2023-03-19T04:59:01;6.70;99.90
65146;DHT22;51730;56.950;24.126;2023-03-19T05:01:27;6.70;99.90
65146;DHT22;51730;56.950;24.126;2023-03-19T05:03:54;6.70;99.90
65146;DHT22;51730;56.950;24.126;2023-03-19T05:06:21;6.70;99.90
65146;DHT22;51730;56.950;24.126;2023-03-19T05:08:48;6.60;99.90
65146;DHT22;51730;56.950;24.126;2023-03-19T05:11:15;6.60;99.90
65146;DHT22;51730;56.950;24.126;2023-03-19T05:13:42;6.80;99.90
65146;DHT22;51730;56.950;24.126;2023-03-19T05:16:08;6.70;99.90
65146;DHT22;51730;56.950;24.126;2023-03-19T05:18:36;6.80;99.90
65146;DHT22;51730;56.950;24.126;2023-03-19T05:21:08;6.80;99.90
65146;DHT22;51730;56.950;24.126;2023-03-19T05:23:36;6.80;99.90
65146;DHT22;51730;56.950;24.126;2023-03-19T05:26:02;6.80;99.90
65146;DHT22;51730;56.950;24.126;2023-03-19T05:28:29;6.80;99.90
65146;DHT22;51730;56.950;24.126;2023-03-19T05:30:56;6.90;99.90
65146;DHT22;51730;56.950;24.126;2023-03-19T05:33:23;6.90;99.90
65146;DHT22;51730;56.950;24.126;2023-03-19T05:35:50;6.80;99.90
65146;DHT22;51730;56.950;24.126;2023-03-19T05:38:17;6.90;99.90
65146;DHT22;51730;56.950;24.126;2023-03-19T05:40:44;7.00;99.90
65146;DHT22;51730;56.950;24.126;2023-03-19T05:43:11;7.10;99.90
65146;DHT22;51730;56.950;24.126;2023-03-19T05:45:38;7.10;99.90
65146;DHT22;51730;56.950;24.126;2023-03-19T05:48:05;7.00;99.90
65146;DHT22;51730;56.950;24.126;2023-03-19T05:50:32;7.10;99.90
65146;DHT22;51730;56.950;24.126;2023-03-19T05:52:59;7.10;99.90
65146;DHT22;51730;56.950;24.126;2023-03-19T05:55:26;7.10;99.90
65146;DHT22;51730;56.950;24.126;2023-03-19T05:57:53;7.10;99.90
65146;DHT22;51730;56.950;24.126;2023-03-19T06:00:20;7.10;99.90
65146;DHT22;51730;56.950;24.126;2023-03-19T06:02:46;7.10;99.90
65146;DHT22;51730;56.950;24.126;2023-03-19T06:05:13;7.10;99.90
65146;DHT22;51730;56.950;24.126;2023-03-19T06:07:40;7.10;99.90
65146;DHT22;51730;56.950;24.126;2023-03-19T06:10:08;7.10;99.90
65146;DHT22;51730;56.950;24.126;2023-03-19T06:12:35;7.10;99.90
65146;DHT22;51730;56.950;24.126;2023-03-19T06:15:02;7.10;99.90
65146;DHT22;51730;56.950;24.126;2023-03-19T06:17:29;7.10;99.90
65146;DHT22;51730;56.950;24.126;2023-03-19T06:19:56;7.20;99.90
65146;DHT22;51730;56.950;24.126;2023-03-19T06:22:22;7.20;99.90
65146;DHT22;51730;56.950;24.126;2023-03-19T06:24:49;7.30;99.90
65146;DHT22;51730;56.950;24.126;2023-03-19T06:27:16;7.40;99.90
65146;DHT22;51730;56.950;24.126;2023-03-19T06:29:43;7.40;99.90
65146;DHT22;51730;56.950;24.126;2023-03-19T06:32:10;7.40;99.90
65146;DHT22;51730;56.950;24.126;2023-03-19T06:34:36;7.60;99.90
65146;DHT22;51730;56.950;24.126;2023-03-19T06:37:03;7.70;99.90
65146;DHT22;51730;56.950;24.126;2023-03-19T06:39:30;7.70;99.90
65146;DHT22;51730;56.950;24.126;2023-03-19T06:41:57;7.80;99.90
65146;DHT22;51730;56.950;24.126;2023-03-19T06:44:24;7.90;99.90
65146;DHT22;51730;56.950;24.126;2023-03-19T06:46:51;7.90;99.90
65146;DHT22;51730;56.950;24.126;2023-03-19T06:49:18;8.00;99.90
65146;DHT22;51730;56.950;24.126;2023-03-19T06:51:45;8.00;99.90
65146;DHT22;51730;56.950;24.126;2023-03-19T06:54:12;7.90;99.90
65146;DHT22;51730;56.950;24.126;2023-03-19T06:56:38;7.80;99.90
65146;DHT22;51730;56.950;24.126;2023-03-19T06:59:06;7.90;99.90
65146;DHT22;51730;56.950;24.126;2023-03-19T07:01:32;7.90;99.90
65146;DHT22;51730;56.950;24.126;2023-03-19T07:03:59;7.90;99.90
65146;DHT22;51730;56.950;24.126;2023-03-19T07:06:26;8.00;99.90
65146;DHT22;51730;56.950;24.126;2023-03-19T07:08:53;8.00;99.90
65146;DHT22;51730;56.950;24.126;2023-03-19T07:11:20;8.10;99.90
65146;DHT22;51730;56.950;24.126;2023-03-19T07:13:47;8.10;99.90
65146;DHT22;51730;56.950;24.126;2023-03-19T07:16:13;8.10;99.90
65146;DHT22;51730;56.950;24.126;2023-03-19T07:18:40;8.10;99.90
65146;DHT22;51730;56.950;24.126;2023-03-19T07:21:07;8.20;99.90
65146;DHT22;51730;56.950;24.126;2023-03-19T07:23:34;8.10;99.90
65146;DHT22;51730;56.950;24.126;2023-03-19T07:26:01;8.20;99.90
65146;DHT22;51730;56.950;24.126;2023-03-19T07:28:29;8.20;99.90
65146;DHT22;51730;56.950;24.126;2023-03-19T07:30:55;8.10;99.90
65146;DHT22;51730;56.950;24.126;2023-03-19T07:33:22;8.10;99.90
65146;DHT22;51730;56.950;24.126;2023-03-19T07:35:49;8.20;99.90
65146;DHT22;51730;56.950;24.126;2023-03-19T07:38:16;8.20;99.90
65146;DHT22;51730;56.950;24.126;2023-03-19T07:40:43;8.20;99.90
65146;DHT22;51730;56.950;24.126;2023-03-19T07:43:24;8.20;99.90
65146;DHT22;51730;56.950;24.126;2023-03-19T07:45:51;8.10;99.90
65146;DHT22;51730;56.950;24.126;2023-03-19T07:48:18;8.10;99.90
65146;DHT22;51730;56.950;24.126;2023-03-19T07:50:45;8.10;99.90
65146;DHT22;51730;56.950;24.126;2023-03-19T07:53:12;8.20;99.90
65146;DHT22;51730;56.950;24.126;2023-03-19T07:55:39;8.10;99.90
65146;DHT22;51730;56.950;24.126;2023-03-19T07:58:06;8.20;99.90
65146;DHT22;51730;56.950;24.126;2023-03-19T08:00:33;8.10;99.90
65146;DHT22;51730;56.950;24.126;2023-03-19T08:03:00;8.20;99.90
65146;DHT22;51730;56.950;24.126;2023-03-19T08:05:26;8.20;99.90
65146;DHT22;51730;56.950;24.126;2023-03-19T08:07:54;8.30;99.90
65146;DHT22;51730;56.950;24.126;2023-03-19T08:10:21;8.40;99.90
65146;DHT22;51730;56.950;24.126;2023-03-19T08:12:48;8.30;99.90
65146;DHT22;51730;56.950;24.126;2023-03-19T08:15:15;8.30;99.90
65146;DHT22;51730;56.950;24.126;2023-03-19T08:17:42;8.40;99.90
65146;DHT22;51730;56.950;24.126;2023-03-19T08:20:09;8.50;99.90
65146;DHT22;51730;56.950;24.126;2023-03-19T08:22:37;8.60;99.90
65146;DHT22;51730;56.950;24.126;2023-03-19T08:25:04;8.60;99.90
65146;DHT22;51730;56.950;24.126;2023-03-19T08:27:32;8.60;99.90
65146;DHT22;51730;56.950;24.126;2023-03-19T08:30:04;8.70;99.90
65146;DHT22;51730;56.950;24.126;2023-03-19T08:32:31;8.60;99.90
65146;DHT22;51730;56.950;24.126;2023-03-19T08:34:58;8.70;99.90
65146;DHT22;51730;56.950;24.126;2023-03-19T08:37:25;8.70;99.90
65146;DHT22;51730;56.950;24.126;2023-03-19T08:39:52;8.70;99.90
65146;DHT22;51730;56.950;24.126;2023-03-19T08:42:19;8.80;99.90
65146;DHT22;51730;56.950;24.126;2023-03-19T08:44:47;8.80;99.90
65146;DHT22;51730;56.950;24.126;2023-03-19T08:47:13;8.80;99.90
65146;DHT22;51730;56.950;24.126;2023-03-19T08:49:40;8.70;99.90
65146;DHT22;51730;56.950;24.126;2023-03-19T08:52:07;8.70;99.90
65146;DHT22;51730;56.950;24.126;2023-03-19T08:54:34;8.70;99.90
65146;DHT22;51730;56.950;24.126;2023-03-19T08:57:02;8.80;99.90
65146;DHT22;51730;56.950;24.126;2023-03-19T08:59:29;8.70;99.90
65146;DHT22;51730;56.950;24.126;2023-03-19T09:01:59;8.80;99.90
65146;DHT22;51730;56.950;24.126;2023-03-19T09:04:27;8.80;99.90
65146;DHT22;51730;56.950;24.126;2023-03-19T09:06:54;8.90;99.90
65146;DHT22;51730;56.950;24.126;2023-03-19T09:09:22;8.90;99.90
65146;DHT22;51730;56.950;24.126;2023-03-19T09:11:49;8.80;99.90
65146;DHT22;51730;56.950;24.126;2023-03-19T09:14:15;8.70;99.90
65146;DHT22;51730;56.950;24.126;2023-03-19T09:16:43;8.70;99.90
65146;DHT22;51730;56.950;24.126;2023-03-19T09:19:10;8.70;99.90
65146;DHT22;51730;56.950;24.126;2023-03-19T09:21:37;8.80;99.90
65146;DHT22;51730;56.950;24.126;2023-03-19T09:24:04;8.90;99.90
65146;DHT22;51730;56.950;24.126;2023-03-19T09:26:30;8.90;99.90
65146;DHT22;51730;56.950;24.126;2023-03-19T09:28:58;9.00;99.90
65146;DHT22;51730;56.950;24.126;2023-03-19T09:31:25;9.10;99.90
65146;DHT22;51730;56.950;24.126;2023-03-19T09:33:55;9.00;99.90
65146;DHT22;51730;56.950;24.126;2023-03-19T09:36:21;9.10;99.90
65146;DHT22;51730;56.950;24.126;2023-03-19T09:38:48;9.10;99.90
65146;DHT22;51730;56.950;24.126;2023-03-19T09:41:19;9.10;99.90
65146;DHT22;51730;56.950;24.126;2023-03-19T09:49:22;9.00;99.90
65146;DHT22;51730;56.950;24.126;2023-03-19T09:56:44;8.90;99.90
65146;DHT22;51730;56.950;24.126;2023-03-19T09:59:11;8.90;99.90
65146;DHT22;51730;56.950;24.126;2023-03-19T10:01:38;8.90;99.90
65146;DHT22;51730;56.950;24.126;2023-03-19T10:04:16;8.90;99.90
65146;DHT22;51730;56.950;24.126;2023-03-19T10:06:46;8.90;99.90
65146;DHT22;51730;56.950;24.126;2023-03-19T10:17:34;9.00;99.90
65146;DHT22;51730;56.950;24.126;2023-03-19T10:20:08;8.90;99.90
65146;DHT22;51730;56.950;24.126;2023-03-19T10:22:40;8.90;99.90
65146;DHT22;51730;56.950;24.126;2023-03-19T10:25:10;8.80;99.90
65146;DHT22;51730;56.950;24.126;2023-03-19T10:27:39;8.80;99.90
65146;DHT22;51730;56.950;24.126;2023-03-19T10:30:13;8.80;99.90
65146;DHT22;51730;56.950;24.126;2023-03-19T10:32:42;8.80;99.90
65146;DHT22;51730;56.950;24.126;2023-03-19T10:35:19;8.70;99.90
65146;DHT22;51730;56.950;24.126;2023-03-19T10:37:47;8.80;99.90
65146;DHT22;51730;56.950;24.126;2023-03-19T10:40:18;8.80;99.90
65146;DHT22;51730;56.950;24.126;2023-03-19T10:45:23;8.80;99.90
65146;DHT22;51730;56.950;24.126;2023-03-19T10:47:51;8.80;99.90
65146;DHT22;51730;56.950;24.126;2023-03-19T10:50:19;8.80;99.90
65146;DHT22;51730;56.950;24.126;2023-03-19T10:52:49;8.80;99.90
65146;DHT22;51730;56.950;24.126;2023-03-19T10:55:24;8.80;99.90
65146;DHT22;51730;56.950;24.126;2023-03-19T10:57:55;8.80;99.90
65146;DHT22;51730;56.950;24.126;2023-03-19T11:00:23;8.90;99.90
65146;DHT22;51730;56.950;24.126;2023-03-19T11:02:53;8.90;99.90
65146;DHT22;51730;56.950;24.126;2023-03-19T11:08:04;9.00;99.90
65146;DHT22;51730;56.950;24.126;2023-03-19T11:10:32;9.00;99.90
65146;DHT22;51730;56.950;24.126;2023-03-19T11:13:14;9.00;99.90
65146;DHT22;51730;56.950;24.126;2023-03-19T11:15:41;9.10;99.90
65146;DHT22;51730;56.950;24.126;2023-03-19T11:18:18;9.20;99.90
65146;DHT22;51730;56.950;24.126;2023-03-19T11:23:40;9.30;99.90
65146;DHT22;51730;56.950;24.126;2023-03-19T11:26:07;9.30;99.90
65146;DHT22;51730;56.950;24.126;2023-03-19T11:28:36;9.30;99.90
65146;DHT22;51730;56.950;24.126;2023-03-19T11:36:27;9.40;99.90
65146;DHT22;51730;56.950;24.126;2023-03-19T11:44:23;9.50;99.90
65146;DHT22;51730;56.950;24.126;2023-03-19T11:46:58;9.40;99.90
65146;DHT22;51730;56.950;24.126;2023-03-19T11:52:24;9.40;99.90
65146;DHT22;51730;56.950;24.126;2023-03-19T12:05:48;9.40;99.90
65146;DHT22;51730;56.950;24.126;2023-03-19T12:18:22;9.50;99.90
65146;DHT22;51730;56.950;24.126;2023-03-19T12:21:07;9.50;99.90
65146;DHT22;51730;56.950;24.126;2023-03-19T12:29:03;9.60;99.90
65146;DHT22;51730;56.950;24.126;2023-03-19T12:31:37;9.60;99.90
65146;DHT22;51730;56.950;24.126;2023-03-19T12:34:41;9.60;99.90
65146;DHT22;51730;56.950;24.126;2023-03-19T12:39:35;9.50;99.90
65146;DHT22;51730;56.950;24.126;2023-03-19T12:42:03;9.60;99.90
65146;DHT22;51730;56.950;24.126;2023-03-19T12:44:33;9.60;99.90
65146;DHT22;51730;56.950;24.126;2023-03-19T12:47:03;9.70;99.90
65146;DHT22;51730;56.950;24.126;2023-03-19T12:49:51;9.70;99.90
65146;DHT22;51730;56.950;24.126;2023-03-19T13:00:06;9.60;99.90
65146;DHT22;51730;56.950;24.126;2023-03-19T13:02:37;9.70;99.90
65146;DHT22;51730;56.950;24.126;2023-03-19T13:07:50;9.70;99.90
65146;DHT22;51730;56.950;24.126;2023-03-19T13:10:22;9.70;99.90
65146;DHT22;51730;56.950;24.126;2023-03-19T13:12:49;9.70;99.90
65146;DHT22;51730;56.950;24.126;2023-03-19T13:22:50;9.80;99.90
65146;DHT22;51730;56.950;24.126;2023-03-19T13:25:21;9.90;99.90
65146;DHT22;51730;56.950;24.126;2023-03-19T13:27:55;10.00;99.90
65146;DHT22;51730;56.950;24.126;2023-03-19T13:30:22;10.10;99.90
65146;DHT22;51730;56.950;24.126;2023-03-19T13:32:50;10.10;99.90
65146;DHT22;51730;56.950;24.126;2023-03-19T13:38:05;10.10;99.90
65146;DHT22;51730;56.950;24.126;2023-03-19T13:43:02;10.00;99.90
65146;DHT22;51730;56.950;24.126;2023-03-19T13:45:36;10.00;99.90
65146;DHT22;51730;56.950;24.126;2023-03-19T13:48:22;10.00;99.90
65146;DHT22;51730;56.950;24.126;2023-03-19T13:56:07;10.00;99.90
65146;DHT22;51730;56.950;24.126;2023-03-19T14:01:39;10.00;99.90
65146;DHT22;51730;56.950;24.126;2023-03-19T14:06:46;10.10;99.90
65146;DHT22;51730;56.950;24.126;2023-03-19T14:09:34;10.10;99.90
65146;DHT22;51730;56.950;24.126;2023-03-19T14:12:09;10.10;99.90
65146;DHT22;51730;56.950;24.126;2023-03-19T14:15:13;10.00;99.90
65146;DHT22;51730;56.950;24.126;2023-03-19T14:17:32;10.00;99.90
65146;DHT22;51730;56.950;24.126;2023-03-19T14:20:04;10.00;99.90
65146;DHT22;51730;56.950;24.126;2023-03-19T14:22:54;10.00;99.90
65146;DHT22;51730;56.950;24.126;2023-03-19T14:25:25;10.00;99.90
65146;DHT22;51730;56.950;24.126;2023-03-19T14:28:01;10.00;99.90
65146;DHT22;51730;56.950;24.126;2023-03-19T14:30:38;10.00;99.90
65146;DHT22;51730;56.950;24.126;2023-03-19T14:33:06;10.00;99.90
65146;DHT22;51730;56.950;24.126;2023-03-19T14:35:40;9.90;99.90
65146;DHT22;51730;56.950;24.126;2023-03-19T14:38:31;9.90;99.90
65146;DHT22;51730;56.950;24.126;2023-03-19T14:40:56;9.90;99.90
65146;DHT22;51730;56.950;24.126;2023-03-19T14:43:39;9.90;99.90
65146;DHT22;51730;56.950;24.126;2023-03-19T14:46:26;9.90;99.90
65146;DHT22;51730;56.950;24.126;2023-03-19T14:54:03;9.90;99.90
65146;DHT22;51730;56.950;24.126;2023-03-19T14:56:32;9.90;99.90
65146;DHT22;51730;56.950;24.126;2023-03-19T14:58:59;9.90;99.90
65146;DHT22;51730;56.950;24.126;2023-03-19T15:01:30;9.90;99.90
65146;DHT22;51730;56.950;24.126;2023-03-19T15:04:01;9.90;99.90
65146;DHT22;51730;56.950;24.126;2023-03-19T15:06:34;9.90;99.90
65146;DHT22;51730;56.950;24.126;2023-03-19T15:09:04;9.90;99.90
65146;DHT22;51730;56.950;24.126;2023-03-19T15:11:41;9.90;99.90
65146;DHT22;51730;56.950;24.126;2023-03-19T15:16:58;9.90;99.90
65146;DHT22;51730;56.950;24.126;2023-03-19T15:19:27;9.90;99.90
65146;DHT22;51730;56.950;24.126;2023-03-19T15:24:40;10.00;99.90
65146;DHT22;51730;56.950;24.126;2023-03-19T15:27:20;10.00;99.90
65146;DHT22;51730;56.950;24.126;2023-03-19T15:29:48;10.00;99.90
65146;DHT22;51730;56.950;24.126;2023-03-19T15:32:50;10.00;99.90
65146;DHT22;51730;56.950;24.126;2023-03-19T15:35:21;10.00;99.90
65146;DHT22;51730;56.950;24.126;2023-03-19T15:37:51;10.00;99.90
65146;DHT22;51730;56.950;24.126;2023-03-19T15:40:19;10.00;99.90
65146;DHT22;51730;56.950;24.126;2023-03-19T15:42:47;10.00;99.90
65146;DHT22;51730;56.950;24.126;2023-03-19T15:45:17;10.00;99.90
65146;DHT22;51730;56.950;24.126;2023-03-19T15:48:07;10.00;99.90
65146;DHT22;51730;56.950;24.126;2023-03-19T15:50:34;10.00;99.90
65146;DHT22;51730;56.950;24.126;2023-03-19T15:53:09;10.00;99.90
65146;DHT22;51730;56.950;24.126;2023-03-19T15:55:37;10.00;99.90
65146;DHT22;51730;56.950;24.126;2023-03-19T15:58:08;10.00;99.90
65146;DHT22;51730;56.950;24.126;2023-03-19T16:00:37;10.00;99.90
65146;DHT22;51730;56.950;24.126;2023-03-19T16:03:06;10.00;99.90
65146;DHT22;51730;56.950;24.126;2023-03-19T16:05:33;10.00;99.90
65146;DHT22;51730;56.950;24.126;2023-03-19T16:08:16;10.00;99.90
65146;DHT22;51730;56.950;24.126;2023-03-19T16:10:43;10.00;99.90
65146;DHT22;51730;56.950;24.126;2023-03-19T16:13:27;10.00;99.90
65146;DHT22;51730;56.950;24.126;2023-03-19T16:18:23;10.00;99.90
65146;DHT22;51730;56.950;24.126;2023-03-19T16:21:13;10.00;99.90
65146;DHT22;51730;56.950;24.126;2023-03-19T16:24:23;9.90;99.90
65146;DHT22;51730;56.950;24.126;2023-03-19T16:26:26;9.90;99.90
65146;DHT22;51730;56.950;24.126;2023-03-19T16:31:41;9.90;99.90
65146;DHT22;51730;56.950;24.126;2023-03-19T16:34:25;9.90;99.90
65146;DHT22;51730;56.950;24.126;2023-03-19T16:36:57;9.90;99.90
65146;DHT22;51730;56.950;24.126;2023-03-19T16:42:35;9.90;99.90
65146;DHT22;51730;56.950;24.126;2023-03-19T16:44:42;9.90;99.90
65146;DHT22;51730;56.950;24.126;2023-03-19T16:47:10;9.80;99.90
65146;DHT22;51730;56.950;24.126;2023-03-19T16:49:37;9.80;99.90
65146;DHT22;51730;56.950;24.126;2023-03-19T16:52:04;9.80;99.90
65146;DHT22;51730;56.950;24.126;2023-03-19T16:54:32;9.80;99.90
65146;DHT22;51730;56.950;24.126;2023-03-19T16:56:59;9.80;99.90
65146;DHT22;51730;56.950;24.126;2023-03-19T16:59:26;9.80;99.90
65146;DHT22;51730;56.950;24.126;2023-03-19T17:01:54;9.70;99.90
65146;DHT22;51730;56.950;24.126;2023-03-19T17:04:21;9.80;99.90
65146;DHT22;51730;56.950;24.126;2023-03-19T17:06:49;9.80;99.90
65146;DHT22;51730;56.950;24.126;2023-03-19T17:09:16;9.80;99.90
65146;DHT22;51730;56.950;24.126;2023-03-19T17:11:42;9.80;99.90
65146;DHT22;51730;56.950;24.126;2023-03-19T17:14:14;9.80;99.90
65146;DHT22;51730;56.950;24.126;2023-03-19T17:16:44;9.70;99.90
65146;DHT22;51730;56.950;24.126;2023-03-19T17:19:20;9.70;99.90
65146;DHT22;51730;56.950;24.126;2023-03-19T17:21:47;9.70;99.90
65146;DHT22;51730;56.950;24.126;2023-03-19T17:24:23;9.70;99.90
65146;DHT22;51730;56.950;24.126;2023-03-19T17:26:51;9.70;99.90
65146;DHT22;51730;56.950;24.126;2023-03-19T17:29:18;9.70;99.90
65146;DHT22;51730;56.950;24.126;2023-03-19T17:31:49;9.70;99.90
65146;DHT22;51730;56.950;24.126;2023-03-19T17:34:20;9.70;99.90
65146;DHT22;51730;56.950;24.126;2023-03-19T17:37:05;9.70;99.90
65146;DHT22;51730;56.950;24.126;2023-03-19T17:39:36;9.70;99.90
65146;DHT22;51730;56.950;24.126;2023-03-19T17:42:08;9.70;99.90
65146;DHT22;51730;56.950;24.126;2023-03-19T17:44:39;9.70;99.90
65146;DHT22;51730;56.950;24.126;2023-03-19T17:47:07;9.70;99.90